Upper Darby, Pennsylvania
Current Conditions -  °F | °C
As of 9:25 AM on Tuesday 27 Jan 2015 (Local Time) from KPHL Reporting Station
Light Snow Light Snow  
Wind Chill: 16°   Ceiling: 2400
Heat Index: 27°   Visibility: 3mi
Dew Point: 22°   Wind: 14mph
Humidity: 81%   Direction: 330°NNW
Pressure: 29.77"   Gusts: NA
Location:  39.93°N, 75.27°W
Report Text: KPHL 271425Z 33012KT 3SM -SN SCT015 BKN024 OVC034 M03/M06 A2977 RMK AO2 P0001 T10281056
Loading
Personal Weather Stations






























Interactive Weather Map New forecast layout! Learn more

10-Day Weather Forecast

Advertisements
Track Severe Weather on mobile